Lanier, Texas
Current Conditions -  °F | °C
As of 10:35 PM on Wednesday 26 Nov 2014 (Local Time) from KASL Reporting Station
Clear Clear  
Wind Chill: 48°   Ceiling: Unl
Heat Index: 48°   Visibility: 10mi
Dew Point: 38°   Wind: 0mph
Humidity: 69%   Direction: NA
Pressure: 30.34"   Gusts: NA
Location:  33.0065°N, 94.3775°W
Report Text: KASL 270435Z AUTO 00000KT 10SM CLR 09/04 A3034 RMK AO1 T00900035
Loading
Personal Weather Stations






























Interactive Weather Map New forecast layout! Learn more

10-Day Weather Forecast

Advertisements
Track Severe Weather on mobile